Time;durP1;ratioP1;P1;durP2;ratioP2;P2;SDS_P1;SDS_P2;PMS_P1;PMS_P2;Temp;Humidity;BMP_temperature;BMP_pressure;BME280_temperature;BME280_humidity;BME280_pressure;Samples;Min_cycle;Max_cycle;Signal;HPM_P1;HPM_P2
2022/11/14 00:00:49;;;;;;;42.53;31.13;;;3.80;99.90;;;;;;4907815;29;38586;-80
2022/11/14 00:03:15;;;;;;;39.73;29.23;;;3.80;99.90;;;;;;4906933;29;36607;-80
2022/11/14 00:05:43;;;;;;;43.43;29.03;;;3.80;99.90;;;;;;4902197;29;36720;-80
2022/11/14 00:08:20;;;;;;;33.43;26.27;;;3.80;99.90;;;;;;4904843;29;39193;-81
2022/11/14 00:11:01;;;;;;;39.17;28.70;;;4.00;99.90;;;;;;4905344;29;39622;-80
2022/11/14 00:13:32;;;;;;;45.50;32.97;;;4.00;99.90;;;;;;4908487;29;39603;-80
2022/11/14 00:16:02;;;;;;;44.00;32.40;;;4.00;99.90;;;;;;4907055;29;37239;-80
2022/11/14 00:18:28;;;;;;;47.30;33.23;;;4.00;99.90;;;;;;4906561;29;39409;-80
2022/11/14 00:20:55;;;;;;;32.17;24.40;;;3.90;99.90;;;;;;4906458;29;37043;-81
2022/11/14 00:23:21;;;;;;;40.33;27.63;;;3.90;99.90;;;;;;4903865;29;37645;-80
2022/11/14 00:25:59;;;;;;;34.57;25.60;;;4.00;99.90;;;;;;4919413;29;36084;-80
2022/11/14 00:28:26;;;;;;;36.30;25.63;;;4.10;99.90;;;;;;4909674;29;39025;-81
2022/11/14 00:30:52;;;;;;;35.57;26.90;;;4.40;99.90;;;;;;4904807;29;39949;-80
2022/11/14 00:33:19;;;;;;;37.13;27.50;;;4.50;99.90;;;;;;4899371;29;38245;-80
2022/11/14 00:35:57;;;;;;;43.03;31.73;;;4.60;99.90;;;;;;4889868;29;39052;-80
2022/11/14 00:38:23;;;;;;;36.83;28.30;;;4.80;99.90;;;;;;4889268;29;37175;-79
2022/11/14 00:40:50;;;;;;;34.80;28.07;;;5.00;99.90;;;;;;4900114;29;38909;-80
2022/11/14 00:43:16;;;;;;;36.83;28.60;;;5.00;99.90;;;;;;4909780;29;37614;-80
2022/11/14 00:45:46;;;;;;;34.40;26.63;;;5.00;99.90;;;;;;4907972;29;40337;-79
2022/11/14 00:48:13;;;;;;;35.57;27.40;;;5.00;99.90;;;;;;4904094;29;39127;-80
2022/11/14 00:50:40;;;;;;;44.40;31.33;;;4.90;99.90;;;;;;4906995;29;39320;-80
2022/11/14 00:53:06;;;;;;;37.73;27.60;;;4.90;99.90;;;;;;4908120;29;38298;-80
2022/11/14 00:55:35;;;;;;;40.27;30.63;;;5.00;99.90;;;;;;4907436;29;37600;-80
2022/11/14 00:58:02;;;;;;;43.00;29.67;;;5.00;99.90;;;;;;4907931;29;38647;-80
2022/11/14 01:00:28;;;;;;;32.27;25.23;;;5.00;99.90;;;;;;4892718;29;47086;-80
2022/11/14 01:02:55;;;;;;;34.77;26.47;;;5.00;99.90;;;;;;4906125;29;38387;-80
2022/11/14 01:05:23;;;;;;;38.70;29.53;;;5.00;99.90;;;;;;4907476;29;37135;-81
2022/11/14 01:07:49;;;;;;;37.70;27.90;;;5.10;99.90;;;;;;4917991;29;39987;-80
2022/11/14 01:10:16;;;;;;;36.00;27.67;;;5.10;99.90;;;;;;4914256;29;39995;-79
2022/11/14 01:12:42;;;;;;;45.00;30.73;;;5.10;99.90;;;;;;4913394;29;36862;-79
2022/11/14 01:15:10;;;;;;;34.97;27.80;;;5.10;99.90;;;;;;4915344;29;20113;-80
2022/11/14 01:17:36;;;;;;;30.37;24.90;;;5.10;99.90;;;;;;4906482;29;38061;-81
2022/11/14 01:20:04;;;;;;;33.93;26.37;;;5.10;99.90;;;;;;4909434;29;38089;-80
2022/11/14 01:22:31;;;;;;;35.87;26.33;;;5.10;99.90;;;;;;4902950;29;48110;-80
2022/11/14 01:24:57;;;;;;;32.93;26.83;;;5.20;99.90;;;;;;4919807;29;37188;-81
2022/11/14 01:27:30;;;;;;;33.90;26.50;;;5.30;99.90;;;;;;4907000;29;38554;-79
2022/11/14 01:29:56;;;;;;;30.73;25.53;;;5.30;99.90;;;;;;4906713;29;37278;-79
2022/11/14 01:32:22;;;;;;;34.10;26.27;;;5.30;99.90;;;;;;4902133;29;38907;-80
2022/11/14 01:34:48;;;;;;;31.03;27.13;;;5.20;99.90;;;;;;4905075;29;34869;-80
2022/11/14 01:37:14;;;;;;;33.10;27.13;;;5.20;99.90;;;;;;4904997;29;37592;-80
2022/11/14 01:39:41;;;;;;;32.53;26.63;;;5.20;99.90;;;;;;4912189;29;37529;-80
2022/11/14 01:42:19;;;;;;;31.00;25.90;;;5.20;99.90;;;;;;4909093;29;36708;-80
2022/11/14 01:44:51;;;;;;;30.97;25.10;;;5.20;99.90;;;;;;4905419;29;36249;-81
2022/11/14 01:47:32;;;;;;;27.58;23.92;;;5.20;99.90;;;;;;4911341;29;38979;-80
2022/11/14 01:50:08;;;;;;;29.90;23.70;;;5.20;99.90;;;;;;4895261;29;38863;-80
2022/11/14 01:52:38;;;;;;;34.23;26.60;;;5.20;99.90;;;;;;4887299;29;46947;-81
2022/11/14 01:55:06;;;;;;;32.50;25.00;;;5.10;99.90;;;;;;4883365;29;38138;-80
2022/11/14 01:57:40;;;;;;;34.67;25.87;;;5.10;99.90;;;;;;4890427;29;38080;-81
2022/11/14 02:02:59;;;;;;;33.67;26.02;;;5.10;99.90;;;;;;5179675;23;20044;-79
2022/11/14 02:05:26;;;;;;;29.93;23.97;;;5.10;99.90;;;;;;4859523;29;37072;-79
2022/11/14 02:07:52;;;;;;;32.63;24.03;;;5.10;99.90;;;;;;4880382;29;39070;-78
2022/11/14 02:10:20;;;;;;;29.60;24.37;;;5.20;99.90;;;;;;4884127;29;37208;-78
2022/11/14 02:12:47;;;;;;;30.60;25.13;;;5.10;99.90;;;;;;4878514;29;37189;-79
2022/11/14 02:15:14;;;;;;;29.57;22.60;;;5.00;99.90;;;;;;4881355;29;37660;-79
2022/11/14 02:17:41;;;;;;;29.03;22.57;;;5.00;99.90;;;;;;4886535;29;37797;-79
2022/11/14 02:20:10;;;;;;;26.50;22.40;;;4.90;99.90;;;;;;4877919;28;38375;-78
2022/11/14 02:22:39;;;;;;;28.07;21.60;;;4.90;99.90;;;;;;4883252;29;37049;-79
2022/11/14 02:25:07;;;;;;;32.93;24.70;;;4.90;99.90;;;;;;4886668;28;38222;-79
2022/11/14 02:27:33;;;;;;;26.10;22.00;;;4.90;99.90;;;;;;4883224;29;38454;-79
2022/11/14 02:30:05;;;;;;;26.17;21.60;;;4.90;99.90;;;;;;4884742;29;37102;-79
2022/11/14 02:32:31;;;;;;;31.02;23.38;;;4.90;99.90;;;;;;4897645;29;47324;-79
2022/11/14 02:34:57;;;;;;;26.70;21.77;;;4.90;99.90;;;;;;4883545;29;37124;-79
2022/11/14 02:37:23;;;;;;;32.27;23.67;;;4.90;99.90;;;;;;4887673;29;39030;-79
2022/11/14 02:39:49;;;;;;;29.47;22.27;;;4.90;99.90;;;;;;4886347;29;38911;-79
2022/11/14 02:42:15;;;;;;;28.47;22.80;;;4.90;99.90;;;;;;4874407;29;38058;-78
2022/11/14 02:44:41;;;;;;;31.93;22.57;;;4.90;99.90;;;;;;4889181;29;36192;-79
2022/11/14 02:47:08;;;;;;;25.63;21.93;;;4.90;99.90;;;;;;4903457;29;37429;-78
2022/11/14 02:49:34;;;;;;;27.23;21.87;;;4.90;99.90;;;;;;4892519;29;37943;-79
2022/11/14 02:52:00;;;;;;;30.70;23.73;;;4.90;99.90;;;;;;4888759;29;38135;-79
2022/11/14 02:54:26;;;;;;;31.87;23.60;;;4.90;99.90;;;;;;4892265;29;38085;-79
2022/11/14 02:56:52;;;;;;;31.97;23.60;;;4.90;99.90;;;;;;4884307;29;39068;-79
2022/11/14 02:59:18;;;;;;;29.83;24.10;;;4.90;99.90;;;;;;4889201;29;37441;-79
2022/11/14 03:01:44;;;;;;;26.87;21.73;;;4.80;99.90;;;;;;4887509;29;37942;-80
2022/11/14 03:04:10;;;;;;;30.63;24.47;;;4.80;99.90;;;;;;4890242;29;38730;-79
2022/11/14 03:06:36;;;;;;;25.83;20.80;;;4.80;99.90;;;;;;4900919;29;37640;-79
2022/11/14 03:09:02;;;;;;;34.87;25.70;;;4.70;99.90;;;;;;4904358;28;37347;-79
2022/11/14 03:11:28;;;;;;;27.37;22.70;;;4.80;99.90;;;;;;4886418;29;36946;-79
2022/11/14 03:13:54;;;;;;;27.93;22.57;;;4.80;99.90;;;;;;4897599;29;36919;-79
2022/11/14 03:16:20;;;;;;;28.33;22.83;;;4.80;99.90;;;;;;4891007;29;38870;-78
2022/11/14 03:18:47;;;;;;;26.43;20.17;;;4.80;99.90;;;;;;4883095;29;38354;-79
2022/11/14 03:21:18;;;;;;;27.03;23.00;;;4.60;99.90;;;;;;4888868;29;37531;-79
2022/11/14 03:23:45;;;;;;;27.70;23.10;;;4.60;99.90;;;;;;4886914;29;37490;-79
2022/11/14 03:26:13;;;;;;;33.60;25.03;;;4.50;99.90;;;;;;4882893;29;38104;-79
2022/11/14 03:28:39;;;;;;;29.83;23.03;;;4.50;99.90;;;;;;4888249;29;37361;-78
2022/11/14 03:31:07;;;;;;;25.67;22.00;;;4.40;99.90;;;;;;4887231;29;37203;-78
2022/11/14 03:33:34;;;;;;;34.93;23.63;;;4.50;99.90;;;;;;4886097;29;36935;-79
2022/11/14 03:36:01;;;;;;;27.87;22.33;;;4.40;99.90;;;;;;4903862;29;39649;-79
2022/11/14 03:38:27;;;;;;;28.30;22.50;;;4.30;99.90;;;;;;4890375;29;39561;-79
2022/11/14 03:40:53;;;;;;;25.63;21.33;;;4.30;99.90;;;;;;4887594;29;38298;-78
2022/11/14 03:43:20;;;;;;;30.37;23.93;;;4.20;99.90;;;;;;4890045;29;36940;-78
2022/11/14 03:45:47;;;;;;;25.73;20.03;;;4.20;99.90;;;;;;4882283;29;37956;-78
2022/11/14 03:48:13;;;;;;;32.60;24.77;;;4.10;99.90;;;;;;4878848;29;37453;-78
2022/11/14 03:50:40;;;;;;;28.03;21.43;;;4.10;99.90;;;;;;4885468;29;36836;-77
2022/11/14 03:53:06;;;;;;;30.20;23.97;;;4.10;99.90;;;;;;4901622;29;36259;-76
2022/11/14 03:55:33;;;;;;;30.80;23.53;;;4.00;99.90;;;;;;4881303;29;38680;-76
2022/11/14 03:57:59;;;;;;;29.70;23.30;;;4.00;99.90;;;;;;4881657;29;39470;-76
2022/11/14 04:00:27;;;;;;;31.80;23.77;;;4.00;99.90;;;;;;4877779;29;38069;-77
2022/11/14 04:02:57;;;;;;;30.67;24.47;;;4.10;99.90;;;;;;4882649;29;36159;-77
2022/11/14 04:05:23;;;;;;;33.67;26.03;;;4.10;99.90;;;;;;4874363;29;39058;-77
2022/11/14 04:07:49;;;;;;;36.17;24.43;;;4.10;99.90;;;;;;4862989;29;37427;-76
2022/11/14 04:10:16;;;;;;;28.93;22.37;;;4.10;99.90;;;;;;4873107;29;38211;-77
2022/11/14 04:12:50;;;;;;;27.73;22.97;;;4.10;99.90;;;;;;4878181;29;36481;-77
2022/11/14 04:15:17;;;;;;;39.30;28.73;;;4.00;99.90;;;;;;4887974;29;39293;-77
2022/11/14 04:17:44;;;;;;;32.93;24.60;;;4.00;99.90;;;;;;4882887;29;37240;-77
2022/11/14 04:20:12;;;;;;;36.10;26.03;;;4.10;99.90;;;;;;4882010;29;38046;-77
2022/11/14 04:22:38;;;;;;;35.63;26.07;;;4.00;99.90;;;;;;4886163;29;36305;-77
2022/11/14 04:25:06;;;;;;;43.87;28.37;;;4.00;99.90;;;;;;4871437;29;38661;-77
2022/11/14 04:27:32;;;;;;;38.90;27.50;;;4.00;99.90;;;;;;4879984;29;37428;-77
2022/11/14 04:29:59;;;;;;;34.40;26.30;;;4.00;99.90;;;;;;4885803;29;36443;-77
2022/11/14 04:32:25;;;;;;;36.10;24.10;;;4.00;99.90;;;;;;4890568;29;37685;-77
2022/11/14 04:34:51;;;;;;;35.13;26.50;;;4.00;99.90;;;;;;4887618;29;38792;-77
2022/11/14 04:37:17;;;;;;;32.63;24.43;;;4.00;99.90;;;;;;4873123;29;37800;-78
2022/11/14 04:39:43;;;;;;;39.47;26.97;;;4.00;99.90;;;;;;4865892;29;38310;-77
2022/11/14 04:42:09;;;;;;;32.37;24.70;;;3.90;99.90;;;;;;4862238;29;36984;-76
2022/11/14 04:44:35;;;;;;;34.13;24.63;;;3.90;99.90;;;;;;4863091;29;38848;-76
2022/11/14 04:47:02;;;;;;;35.70;26.33;;;3.80;99.90;;;;;;4883207;29;36995;-77
2022/11/14 04:49:28;;;;;;;41.27;29.13;;;3.70;99.90;;;;;;4866217;29;47294;-77
2022/11/14 04:51:54;;;;;;;34.20;26.73;;;3.80;99.90;;;;;;4872570;29;36561;-77
2022/11/14 04:54:20;;;;;;;35.73;24.87;;;3.70;99.90;;;;;;4866375;29;38899;-77
2022/11/14 04:56:46;;;;;;;33.47;24.83;;;3.70;99.90;;;;;;4869229;29;39156;-77
2022/11/14 04:59:13;;;;;;;38.13;28.43;;;3.60;99.90;;;;;;4885211;29;37360;-77
2022/11/14 05:01:39;;;;;;;37.07;26.60;;;3.70;99.90;;;;;;4888728;29;37374;-76
2022/11/14 05:04:05;;;;;;;38.80;27.00;;;3.70;99.90;;;;;;4882909;29;37643;-77
2022/11/14 05:06:31;;;;;;;38.40;26.90;;;3.70;99.90;;;;;;4886452;29;38299;-77
2022/11/14 05:08:57;;;;;;;37.17;25.77;;;3.70;99.90;;;;;;4888328;29;36724;-79
2022/11/14 05:11:23;;;;;;;43.33;29.07;;;3.70;99.90;;;;;;4876953;29;37496;-77
2022/11/14 05:13:49;;;;;;;39.73;28.40;;;3.60;99.90;;;;;;4868696;29;39015;-77
2022/11/14 05:16:15;;;;;;;35.93;25.17;;;3.60;99.90;;;;;;4865436;29;37948;-77
2022/11/14 05:18:42;;;;;;;50.13;29.07;;;3.60;99.90;;;;;;4858773;29;36659;-77
2022/11/14 05:21:14;;;;;;;37.53;25.70;;;3.50;99.90;;;;;;4865520;29;37004;-77
2022/11/14 05:23:40;;;;;;;36.30;25.55;;;3.50;99.90;;;;;;4886675;29;38920;-77
2022/11/14 05:26:09;;;;;;;35.43;25.60;;;3.50;99.90;;;;;;4886045;29;37558;-77
2022/11/14 05:28:35;;;;;;;34.37;24.20;;;3.40;99.90;;;;;;4876747;29;37100;-78
2022/11/14 05:31:07;;;;;;;38.57;27.33;;;3.40;99.90;;;;;;4877028;29;38158;-78
2022/11/14 05:33:34;;;;;;;38.97;27.90;;;3.40;99.90;;;;;;4883839;29;48706;-78
2022/11/14 05:36:12;;;;;;;43.80;28.57;;;3.30;99.90;;;;;;4864661;29;38596;-78
2022/11/14 05:38:38;;;;;;;44.90;29.10;;;3.40;99.90;;;;;;4882372;29;47142;-77
2022/11/14 05:41:10;;;;;;;43.67;28.87;;;3.40;99.90;;;;;;4885648;29;37586;-77
2022/11/14 05:43:36;;;;;;;40.77;28.10;;;3.40;99.90;;;;;;4890058;29;48727;-77
2022/11/14 05:46:08;;;;;;;38.17;25.97;;;3.30;99.90;;;;;;4886271;29;35601;-77
2022/11/14 05:48:34;;;;;;;44.65;27.73;;;3.30;99.90;;;;;;4884403;29;46813;-77
2022/11/14 05:51:02;;;;;;;42.63;28.17;;;3.20;99.90;;;;;;4884668;29;37025;-77
2022/11/14 05:53:29;;;;;;;42.30;26.60;;;3.20;99.90;;;;;;4866033;29;39093;-77
2022/11/14 05:56:00;;;;;;;37.63;27.17;;;3.20;99.90;;;;;;4880118;29;38603;-77
2022/11/14 05:58:26;;;;;;;51.67;32.17;;;3.10;99.90;;;;;;4888937;29;37801;-77
2022/11/14 06:00:52;;;;;;;44.00;29.13;;;3.10;99.90;;;;;;4874127;29;37527;-77
2022/11/14 06:03:21;;;;;;;40.60;28.27;;;3.10;99.90;;;;;;4868912;29;38646;-77
2022/11/14 06:05:47;;;;;;;47.13;27.90;;;3.00;99.90;;;;;;4876288;29;37281;-77
2022/11/14 06:08:13;;;;;;;38.40;26.70;;;3.00;99.90;;;;;;4866761;29;37662;-77
2022/11/14 06:10:39;;;;;;;36.13;25.07;;;2.90;99.90;;;;;;4883375;29;37569;-77
2022/11/14 06:13:05;;;;;;;42.73;28.67;;;2.90;99.90;;;;;;4884739;28;39109;-79
2022/11/14 06:15:31;;;;;;;42.33;26.93;;;2.90;99.90;;;;;;4876176;29;37834;-76
2022/11/14 06:17:57;;;;;;;40.40;28.13;;;2.80;99.90;;;;;;4887926;29;37781;-77
2022/11/14 06:20:23;;;;;;;47.60;30.67;;;2.80;99.90;;;;;;4902238;29;36319;-77
2022/11/14 06:22:54;;;;;;;43.87;29.50;;;2.80;99.90;;;;;;4889699;29;39435;-77
2022/11/14 06:25:20;;;;;;;41.77;28.37;;;2.80;99.90;;;;;;4896374;29;39454;-77
2022/11/14 06:27:46;;;;;;;39.07;26.60;;;2.80;99.90;;;;;;4895750;29;38292;-76
2022/11/14 06:30:12;;;;;;;42.03;28.37;;;2.80;99.90;;;;;;4896891;28;37378;-77
2022/11/14 06:32:38;;;;;;;44.63;28.60;;;2.80;99.90;;;;;;4896874;29;37687;-77
2022/11/14 06:35:07;;;;;;;48.30;29.97;;;2.70;99.90;;;;;;4893482;29;38137;-76
2022/11/14 06:37:36;;;;;;;42.03;28.87;;;2.80;99.90;;;;;;4890569;29;37305;-77
2022/11/14 06:40:02;;;;;;;51.07;32.30;;;2.70;99.90;;;;;;4880611;29;36343;-76
2022/11/14 06:42:28;;;;;;;38.13;27.40;;;2.60;99.90;;;;;;4869312;29;39627;-77
2022/11/14 06:44:54;;;;;;;41.43;28.70;;;2.50;99.90;;;;;;4871085;29;37069;-76
2022/11/14 06:47:21;;;;;;;46.27;30.13;;;2.50;99.90;;;;;;4897881;28;36890;-77
2022/11/14 06:49:47;;;;;;;46.37;30.10;;;2.40;99.90;;;;;;4890919;29;34717;-77
2022/11/14 06:52:13;;;;;;;41.37;26.93;;;2.30;99.90;;;;;;4890133;29;37998;-77
2022/11/14 06:54:41;;;;;;;48.33;30.67;;;2.30;99.90;;;;;;4888066;29;38084;-77
2022/11/14 06:57:07;;;;;;;40.77;27.43;;;2.30;99.90;;;;;;4884924;29;37376;-79
2022/11/14 06:59:33;;;;;;;44.43;28.17;;;2.20;99.90;;;;;;4896950;29;36635;-77
2022/11/14 07:01:59;;;;;;;44.03;29.17;;;2.20;99.90;;;;;;4884395;29;39004;-78
2022/11/14 07:04:26;;;;;;;41.93;28.00;;;2.20;99.90;;;;;;4890268;29;38293;-78
2022/11/14 07:06:52;;;;;;;44.47;29.07;;;2.20;99.90;;;;;;4892467;29;37356;-77
2022/11/14 07:09:18;;;;;;;39.80;25.60;;;2.10;99.90;;;;;;4892937;29;36253;-78
2022/11/14 07:11:45;;;;;;;45.13;28.17;;;2.10;99.90;;;;;;4896189;29;38491;-78
2022/11/14 07:14:11;;;;;;;33.83;23.20;;;2.20;99.90;;;;;;4891536;29;38344;-78
2022/11/14 07:16:38;;;;;;;44.20;29.87;;;2.10;99.90;;;;;;4886467;29;39103;-78
2022/11/14 07:19:06;;;;;;;46.07;29.93;;;2.10;99.90;;;;;;4885954;29;37614;-78
2022/11/14 07:21:33;;;;;;;46.90;30.13;;;2.20;99.90;;;;;;4878722;29;37932;-79
2022/11/14 07:23:59;;;;;;;47.20;29.60;;;2.20;99.90;;;;;;4876998;29;37635;-79
2022/11/14 07:26:26;;;;;;;39.03;26.87;;;2.20;99.90;;;;;;4876657;29;36925;-79
2022/11/14 07:28:52;;;;;;;42.83;28.10;;;2.20;99.90;;;;;;4871785;29;37594;-79
2022/11/14 07:31:19;;;;;;;37.67;26.30;;;2.20;99.90;;;;;;4891019;29;37847;-79
2022/11/14 07:33:46;;;;;;;39.57;26.17;;;2.20;99.90;;;;;;4890155;29;37479;-79
2022/11/14 07:36:13;;;;;;;31.13;20.77;;;2.30;99.90;;;;;;4895129;29;39150;-79
2022/11/14 07:38:39;;;;;;;36.37;23.03;;;2.40;99.90;;;;;;4888771;29;36350;-79
2022/11/14 07:41:13;;;;;;;36.00;25.33;;;2.70;99.90;;;;;;4898214;29;39132;-78
2022/11/14 07:43:40;;;;;;;31.73;21.40;;;2.70;99.90;;;;;;4891741;29;38676;-78
2022/11/14 07:46:15;;;;;;;32.97;24.97;;;2.80;99.90;;;;;;4889950;29;37815;-80
2022/11/14 07:48:41;;;;;;;33.43;22.10;;;2.90;99.90;;;;;;4883088;29;36235;-80
2022/11/14 07:51:14;;;;;;;28.87;21.07;;;3.00;99.90;;;;;;4893027;29;38845;-78
2022/11/14 07:53:40;;;;;;;30.15;21.35;;;3.00;99.90;;;;;;4902652;29;39120;-78
2022/11/14 07:56:10;;;;;;;34.27;25.63;;;3.20;99.90;;;;;;4908909;29;37102;-78
2022/11/14 07:58:38;;;;;;;30.07;22.57;;;3.30;99.90;;;;;;4893462;29;36479;-77
2022/11/14 08:01:06;;;;;;;30.23;21.97;;;3.30;99.90;;;;;;4895973;29;38961;-77
2022/11/14 08:03:33;;;;;;;31.07;23.00;;;3.30;99.90;;;;;;4891191;29;49716;-78
2022/11/14 08:06:07;;;;;;;30.10;21.77;;;3.40;99.90;;;;;;4896786;29;38119;-77
2022/11/14 08:08:34;;;;;;;28.93;22.07;;;3.50;99.90;;;;;;4898179;29;47353;-78
2022/11/14 08:11:00;;;;;;;37.27;24.10;;;3.50;99.90;;;;;;4910448;29;37002;-77
2022/11/14 08:13:28;;;;;;;27.37;21.00;;;3.60;99.90;;;;;;4880807;29;39475;-77
2022/11/14 08:15:54;;;;;;;24.50;20.20;;;3.60;99.90;;;;;;4894541;29;38780;-78
2022/11/14 08:18:20;;;;;;;49.43;26.53;;;3.70;99.90;;;;;;4895082;29;36459;-78
2022/11/14 08:20:47;;;;;;;42.33;25.57;;;3.80;99.90;;;;;;4899195;29;39030;-78
2022/11/14 08:23:13;;;;;;;33.03;23.03;;;3.90;99.90;;;;;;4900585;29;37491;-78
2022/11/14 08:25:41;;;;;;;31.23;22.23;;;4.00;99.90;;;;;;4895672;29;37807;-78
2022/11/14 08:28:07;;;;;;;32.33;23.40;;;4.00;99.90;;;;;;4912691;29;37864;-78
2022/11/14 08:30:34;;;;;;;32.07;22.63;;;4.10;99.90;;;;;;4901459;29;37511;-78
2022/11/14 08:33:04;;;;;;;31.93;23.87;;;4.20;99.90;;;;;;4891134;29;38400;-77
2022/11/14 08:35:32;;;;;;;33.00;24.23;;;4.20;99.90;;;;;;4909198;29;46054;-78
2022/11/14 08:38:00;;;;;;;31.43;22.40;;;4.30;99.90;;;;;;4885483;29;36309;-77
2022/11/14 08:40:26;;;;;;;32.83;23.83;;;4.30;99.90;;;;;;4892313;29;38004;-78
2022/11/14 08:42:59;;;;;;;31.47;23.13;;;4.30;99.90;;;;;;4885506;29;37650;-78
2022/11/14 08:45:25;;;;;;;29.75;22.98;;;4.40;99.90;;;;;;4882019;29;37291;-78
2022/11/14 08:47:52;;;;;;;26.10;20.87;;;4.40;99.90;;;;;;4886836;29;37838;-77
2022/11/14 08:50:18;;;;;;;30.73;22.13;;;4.50;99.90;;;;;;4891378;29;39024;-78
2022/11/14 08:52:49;;;;;;;26.03;20.80;;;4.50;99.90;;;;;;4884633;29;37190;-78
2022/11/14 08:55:16;;;;;;;28.60;21.67;;;4.50;99.90;;;;;;4882720;29;38053;-78
2022/11/14 08:57:42;;;;;;;26.83;20.97;;;4.60;99.90;;;;;;4887528;29;37326;-78
2022/11/14 09:00:09;;;;;;;27.80;21.23;;;4.60;99.90;;;;;;4886702;29;37796;-78
2022/11/14 09:02:35;;;;;;;28.60;22.47;;;4.70;99.90;;;;;;4883545;29;47516;-77
2022/11/14 09:05:01;;;;;;;24.43;20.13;;;4.70;99.90;;;;;;4889648;29;36838;-78
2022/11/14 09:07:28;;;;;;;33.50;24.87;;;4.80;99.90;;;;;;4900537;29;39293;-82
2022/11/14 09:09:55;;;;;;;25.60;21.73;;;4.80;99.90;;;;;;4897711;29;39955;-81
2022/11/14 09:12:21;;;;;;;27.30;20.47;;;4.90;99.90;;;;;;4898452;29;38645;-79
2022/11/14 09:14:47;;;;;;;31.83;22.63;;;4.90;99.90;;;;;;4899169;29;38678;-80
2022/11/14 09:17:13;;;;;;;27.53;20.70;;;5.00;99.90;;;;;;4880955;29;37200;-81
2022/11/14 09:19:40;;;;;;;30.57;22.73;;;5.10;99.90;;;;;;4885898;29;36783;-80
2022/11/14 09:22:06;;;;;;;31.73;24.37;;;5.20;99.90;;;;;;4877140;29;38765;-79
2022/11/14 09:24:32;;;;;;;32.77;23.13;;;5.30;99.90;;;;;;4898709;29;36893;-80
2022/11/14 09:26:58;;;;;;;37.67;23.67;;;5.40;99.90;;;;;;4900328;29;35993;-81
2022/11/14 09:29:27;;;;;;;35.83;24.27;;;5.60;99.90;;;;;;4877402;29;37825;-81
2022/11/14 09:31:54;;;;;;;31.53;23.10;;;5.70;99.90;;;;;;4871824;29;38441;-78
2022/11/14 09:34:20;;;;;;;33.27;22.43;;;5.90;99.90;;;;;;4867758;29;37393;-80
2022/11/14 09:36:46;;;;;;;32.17;23.23;;;5.90;99.90;;;;;;4873457;29;37775;-79
2022/11/14 09:39:14;;;;;;;33.87;23.23;;;6.00;99.90;;;;;;4879760;29;39543;-79
2022/11/14 09:42:02;;;;;;;30.17;24.13;;;6.00;99.90;;;;;;4887683;29;40860;-79
2022/11/14 09:44:55;;;;;;;26.93;21.73;;;6.10;99.90;;;;;;4884137;29;38619;-79
2022/11/14 09:47:28;;;;;;;;;;;6.20;99.90;;;;;;4888183;28;37958;-75
2022/11/14 09:50:06;;;;;;;26.27;19.90;;;6.30;99.90;;;;;;4889499;29;39756;-80
2022/11/14 09:52:46;;;;;;;32.57;23.27;;;6.40;99.90;;;;;;4884333;29;47239;-79
2022/11/14 09:55:30;;;;;;;32.07;23.10;;;6.50;99.90;;;;;;4879400;29;38953;-77
2022/11/14 09:57:56;;;;;;;29.73;22.40;;;6.70;99.90;;;;;;4892498;28;37048;-77
2022/11/14 10:00:26;;;;;;;26.53;20.40;;;6.80;99.90;;;;;;4891398;29;39766;-77
2022/11/14 10:03:20;;;;;;;31.13;24.13;;;7.00;99.90;;;;;;4887275;29;38449;-82
2022/11/14 10:06:21;;;;;;;29.93;22.90;;;7.10;99.90;;;;;;4854919;23;47127;-79
2022/11/14 10:08:58;;;;;;;31.20;22.17;;;7.20;99.90;;;;;;4854130;29;47027;-79
2022/11/14 10:11:38;;;;;;;28.17;22.20;;;7.40;99.90;;;;;;4877654;29;39068;-79
2022/11/14 10:14:32;;;;;;;32.50;22.43;;;7.30;99.90;;;;;;4869924;29;38806;-78
2022/11/14 10:17:11;;;;;;;29.73;21.43;;;7.30;99.90;;;;;;4901759;29;37370;-78
2022/11/14 10:19:58;;;;;;;31.53;21.93;;;7.20;99.90;;;;;;4868406;29;47198;-78
2022/11/14 10:22:49;;;;;;;25.00;18.60;;;7.10;99.90;;;;;;4860348;29;39091;-79
2022/11/14 10:25:26;;;;;;;34.13;23.60;;;7.20;99.90;;;;;;4874551;29;38496;-79
2022/11/14 10:28:06;;;;;;;34.17;21.40;;;7.20;99.90;;;;;;4872631;29;39345;-79
2022/11/14 10:30:42;;;;;;;35.83;23.93;;;7.30;99.90;;;;;;4849281;29;48784;-80
2022/11/14 10:33:19;;;;;;;30.53;21.40;;;7.30;99.90;;;;;;4873803;29;40208;-79
2022/11/14 10:35:55;;;;;;;32.13;22.40;;;7.30;99.90;;;;;;4877678;29;39122;-79
2022/11/14 10:38:32;;;;;;;32.60;23.13;;;7.30;99.90;;;;;;4877184;29;38889;-79
2022/11/14 10:41:03;;;;;;;32.07;23.33;;;7.30;99.90;;;;;;4873985;29;38799;-79
2022/11/14 10:43:46;;;;;;;27.97;22.43;;;7.40;99.90;;;;;;4873747;29;38666;-79
2022/11/14 10:46:35;;;;;;;27.75;22.88;;;7.40;99.90;;;;;;4860503;29;39544;-78
2022/11/14 10:49:12;;;;;;;33.67;22.27;;;7.50;99.90;;;;;;4873506;29;38599;-79
2022/11/14 10:51:45;;;;;;;32.90;21.40;;;7.60;99.90;;;;;;4871101;29;48059;-78
2022/11/14 10:54:20;;;;;;;31.00;22.70;;;7.70;99.90;;;;;;4874327;29;38514;-79
2022/11/14 10:56:48;;;;;;;29.30;22.37;;;7.80;99.90;;;;;;4873031;29;38244;-78
2022/11/14 10:59:15;;;;;;;29.80;21.63;;;7.90;99.90;;;;;;4864266;29;37811;-79
2022/11/14 11:02:02;;;;;;;31.47;21.37;;;7.90;99.90;;;;;;4876698;29;37228;-79
2022/11/14 11:13:12;;;;;;;33.00;22.70;;;8.20;99.90;;;;;;5146141;27;37709;-79
2022/11/14 11:15:40;;;;;;;32.00;23.30;;;8.30;99.90;;;;;;5140450;27;38970;-79
2022/11/14 11:18:28;;;;;;;33.70;22.87;;;8.40;99.90;;;;;;5145509;27;37225;-78
2022/11/14 11:21:06;;;;;;;32.80;23.67;;;8.50;99.90;;;;;;5132640;27;36812;-81
2022/11/14 11:23:33;;;;;;;34.73;23.57;;;8.60;99.90;;;;;;5146250;27;47501;-80
2022/11/14 11:26:04;;;;;;;31.90;23.47;;;8.70;99.90;;;;;;5142457;27;38813;-79
2022/11/14 11:28:35;;;;;;;35.83;24.50;;;8.90;99.90;;;;;;5145429;27;48978;-80
2022/11/14 11:31:04;;;;;;;34.07;24.20;;;8.90;99.90;;;;;;5139683;27;38056;-79
2022/11/14 11:33:33;;;;;;;36.40;25.80;;;8.90;99.90;;;;;;5133077;27;48778;-79
2022/11/14 11:36:06;;;;;;;33.53;25.10;;;9.00;99.90;;;;;;5152139;27;38541;-80
2022/11/14 11:38:33;;;;;;;36.97;25.60;;;9.00;99.90;;;;;;5145703;27;47199;-79
2022/11/14 11:43:44;;;;;;;30.87;24.20;;;9.20;99.90;;;;;;5069116;28;20047;-81
2022/11/14 11:46:23;;;;;;;34.67;24.97;;;9.30;99.90;;;;;;5070868;28;39166;-79
2022/11/14 11:48:54;;;;;;;30.90;22.93;;;9.40;99.90;;;;;;5068659;28;38779;-80
2022/11/14 11:51:25;;;;;;;32.97;21.57;;;9.40;99.90;;;;;;5063430;28;37090;-81
2022/11/14 11:54:08;;;;;;;30.10;21.80;;;9.40;99.90;;;;;;5072731;28;36159;-79
2022/11/14 11:56:35;;;;;;;32.25;21.17;;;9.40;99.90;;;;;;5055719;28;46943;-79
2022/11/14 11:59:48;;;;;;;27.27;20.43;;;9.50;99.90;;;;;;5071975;28;39696;-79
2022/11/14 12:02:27;;;;;;;30.00;22.03;;;9.70;99.90;;;;;;5052154;28;47022;-79
2022/11/14 12:04:56;;;;;;;27.40;21.20;;;9.80;99.90;;;;;;5058173;28;39704;-79
2022/11/14 12:07:33;;;;;;;29.50;20.87;;;9.80;99.90;;;;;;5054370;28;39382;-79
2022/11/14 12:10:06;;;;;;;28.10;20.10;;;9.80;99.90;;;;;;5057607;28;36321;-78
2022/11/14 12:12:44;;;;;;;25.53;19.80;;;9.90;99.90;;;;;;5055550;28;48949;-78
2022/11/14 12:15:35;;;;;;;28.13;20.53;;;9.90;99.90;;;;;;5055425;28;38157;-77
2022/11/14 12:18:13;;;;;;;28.23;20.10;;;9.90;99.90;;;;;;5050031;28;38691;-77
2022/11/14 12:21:14;;;;;;;29.23;21.40;;;10.00;99.90;;;;;;5051070;28;49030;-78
2022/11/14 12:24:02;;;;;;;27.67;20.07;;;10.10;99.90;;;;;;5038936;28;47194;-78
2022/11/14 12:26:43;;;;;;;28.13;20.83;;;10.10;99.90;;;;;;5055952;28;48017;-78
2022/11/14 12:29:09;;;;;;;27.30;21.57;;;10.20;99.90;;;;;;5037995;28;41139;-77
2022/11/14 12:31:37;;;;;;;34.37;20.60;;;10.20;99.90;;;;;;5064347;28;37661;-79
2022/11/14 12:34:21;;;;;;;28.77;20.60;;;10.10;99.90;;;;;;5043298;28;37965;-78
2022/11/14 12:36:47;;;;;;;31.17;21.37;;;10.00;99.90;;;;;;5046578;28;37547;-79
2022/11/14 12:39:26;;;;;;;28.50;20.57;;;9.90;99.90;;;;;;5045831;28;38706;-78
2022/11/14 12:42:08;;;;;;;28.70;20.17;;;9.90;99.90;;;;;;5043341;28;37459;-77
2022/11/14 12:44:37;;;;;;;26.88;20.05;;;10.00;99.90;;;;;;5045458;28;48678;-77
2022/11/14 12:47:03;;;;;;;33.23;21.47;;;10.10;99.90;;;;;;5040671;28;38472;-77
2022/11/14 12:49:51;;;;;;;29.83;22.63;;;10.20;99.90;;;;;;5042242;28;40576;-78
2022/11/14 12:52:39;;;;;;;26.93;20.00;;;10.20;99.90;;;;;;5037708;28;39518;-78
2022/11/14 12:55:25;;;;;;;27.80;20.13;;;10.20;99.90;;;;;;5038526;28;38532;-77
2022/11/14 12:58:06;;;;;;;27.33;20.03;;;10.10;99.90;;;;;;5041561;28;38703;-78
2022/11/14 13:00:44;;;;;;;25.17;20.80;;;10.20;99.90;;;;;;5037535;28;46998;-78
2022/11/14 13:03:25;;;;;;;26.20;20.40;;;10.20;99.90;;;;;;5038227;28;37934;-77